KIND Airport Diagram

We have created a template for each of the higher traffic airports in the vZID airspace. They include KCMH, KCRW, KCVG, KDAY, KIND, KLEX and KSDF. You wil find usefull information including the airport diagram, weather, and specific airport procedures.

KIND Weather

[Source: ADDS]
KIND 201654Z 01015KT 10SM OVC090 02/M08 A2972 RMK AO2 SLP068 T00221078 =
KIND 201441Z 2015/2118 03010G22KT P6SM BKN080 FM202000 02010KT P6SM VCSH OVC050 FM210000 01010KT P6SM OVC060 PROB30 2100/2106 4SM -RASN OVC025 FM211400 35015KT P6SM BKN040 PROB30 2114/2118 4SM -SN OVC025 =

KIND Operations

 Calm Wind Configuration is runways 23L/R, up to and including 10kts.

Runway 23L typically departs South and East, Runway 23R typically departs North and West.

FedEx pilots should expect runway 23L or 5R.

Contraflow (noise abatement) procedures from 2200L to 0600L, landing Runway 5R, departing Runway 23R, weather permitted.

New Scenery is available at and Blueprint Simulations. On initial contact, arriving aircraft should notify the the controller if their scenery has the Midfield Terminal.

FBOs: Signature is near taxiway D and Millionaire is near taxiway A, both are North of taxiway M.


JSN Epic template designed by